createdAt,value
2022-11-25T00:00:47.848Z,50.89
2022-11-25T00:01:47.949Z,49.55
2022-11-25T00:02:48.037Z,47.85
2022-11-25T00:03:47.825Z,52.98
2022-11-25T00:04:47.822Z,50.87
2022-11-25T00:05:47.804Z,47.63
2022-11-25T00:06:47.823Z,48.22
2022-11-25T00:07:47.845Z,55.64
2022-11-25T00:08:47.771Z,55.51
2022-11-25T00:09:47.769Z,55.15
2022-11-25T00:10:47.756Z,55.91
2022-11-25T00:11:47.749Z,50.86
2022-11-25T00:12:47.751Z,50.19
2022-11-25T00:13:47.729Z,56.71
2022-11-25T00:14:47.718Z,65.81
2022-11-25T00:15:47.707Z,50.88
2022-11-25T00:16:48.880Z,54.28
2022-11-25T00:17:48.714Z,56.01
2022-11-25T00:18:47.678Z,47.57
2022-11-25T00:19:47.660Z,47.78
2022-11-25T00:20:47.663Z,49.53
2022-11-25T00:21:47.653Z,52.19
2022-11-25T00:22:47.658Z,52.40
2022-11-25T00:23:47.628Z,48.49
2022-11-25T00:24:47.639Z,46.87
2022-11-25T00:25:47.606Z,58.73
2022-11-25T00:26:47.597Z,57.36
2022-11-25T00:27:47.578Z,55.99
2022-11-25T00:28:47.604Z,50.05
2022-11-25T00:29:47.574Z,60.12
2022-11-25T00:30:47.560Z,60.21
2022-11-25T00:31:47.625Z,52.35
2022-11-25T00:32:47.562Z,53.70
2022-11-25T00:33:47.550Z,59.08
2022-11-25T00:34:47.542Z,55.35
2022-11-25T00:35:47.519Z,48.00
2022-11-25T00:36:47.503Z,53.50
2022-11-25T00:37:47.515Z,47.95
2022-11-25T00:38:47.489Z,51.97
2022-11-25T00:39:47.495Z,49.51
2022-11-25T00:40:47.478Z,48.62
2022-11-25T00:41:47.464Z,49.76
2022-11-25T00:42:47.450Z,47.63
2022-11-25T00:43:47.433Z,47.03
2022-11-25T00:44:47.429Z,50.95
2022-11-25T00:45:47.469Z,60.18
2022-11-25T00:46:47.410Z,55.65
2022-11-25T00:47:47.404Z,51.93
2022-11-25T00:48:47.409Z,46.67
2022-11-25T00:49:47.397Z,51.66
2022-11-25T00:50:47.371Z,47.82
2022-11-25T00:51:47.356Z,47.86
2022-11-25T00:52:47.343Z,52.57
2022-11-25T00:53:47.346Z,61.71
2022-11-25T00:54:47.362Z,47.72
2022-11-25T00:55:47.317Z,52.06
2022-11-25T00:56:47.303Z,48.64
2022-11-25T00:57:47.299Z,48.08
2022-11-25T00:58:47.284Z,48.52
2022-11-25T00:59:47.274Z,60.32
2022-11-25T01:00:47.278Z,49.09
2022-11-25T01:01:47.328Z,56.72
2022-11-25T01:02:47.292Z,56.57
2022-11-25T01:03:47.245Z,51.70
2022-11-25T01:04:47.237Z,52.99
2022-11-25T01:05:47.210Z,50.70
2022-11-25T01:06:48.230Z,56.23
2022-11-25T01:07:47.293Z,56.65
2022-11-25T01:08:47.190Z,55.49
2022-11-25T01:09:47.179Z,55.57
2022-11-25T01:10:47.178Z,52.53
2022-11-25T01:11:47.161Z,50.23
2022-11-25T01:12:47.167Z,47.34
2022-11-25T01:13:47.177Z,49.37
2022-11-25T01:14:47.141Z,48.38
2022-11-25T01:15:47.119Z,52.55
2022-11-25T01:16:47.200Z,49.28
2022-11-25T01:17:47.106Z,50.91
2022-11-25T01:18:47.113Z,55.08
2022-11-25T01:19:47.095Z,57.58
2022-11-25T01:20:47.076Z,51.15
2022-11-25T01:21:47.059Z,47.30
2022-11-25T01:22:47.075Z,49.42
2022-11-25T01:23:47.034Z,49.77
2022-11-25T01:24:47.034Z,47.95
2022-11-25T01:25:47.021Z,51.79
2022-11-25T01:26:47.014Z,52.21
2022-11-25T01:27:47.025Z,52.83
2022-11-25T01:28:46.995Z,50.40
2022-11-25T01:29:46.983Z,48.08
2022-11-25T01:30:46.984Z,46.58
2022-11-25T01:31:47.033Z,52.74
2022-11-25T01:32:46.957Z,48.35
2022-11-25T01:33:46.961Z,48.73
2022-11-25T01:34:46.958Z,47.95
2022-11-25T01:35:46.921Z,50.63
2022-11-25T01:36:46.915Z,49.90
2022-11-25T01:37:46.919Z,52.72
2022-11-25T01:38:46.902Z,47.73
2022-11-25T01:39:46.918Z,47.24
2022-11-25T01:40:46.882Z,52.18
2022-11-25T01:41:46.878Z,50.30
2022-11-25T01:42:46.870Z,46.52
2022-11-25T01:43:46.857Z,46.33
2022-11-25T01:44:46.851Z,51.20
2022-11-25T01:45:46.923Z,53.91
2022-11-25T01:46:46.840Z,50.42
2022-11-25T01:47:46.811Z,47.14
2022-11-25T01:48:46.803Z,47.43
2022-11-25T01:49:46.797Z,55.60
2022-11-25T01:50:46.797Z,55.05
2022-11-25T01:51:46.801Z,51.97
2022-11-25T01:52:46.769Z,57.76
2022-11-25T01:53:46.760Z,51.11
2022-11-25T01:54:46.773Z,50.85
2022-11-25T01:55:46.748Z,64.60
2022-11-25T01:56:46.728Z,56.55
2022-11-25T01:57:46.726Z,54.88
2022-11-25T01:58:46.722Z,47.53
2022-11-25T01:59:46.722Z,48.43
2022-11-25T02:00:46.749Z,52.06
2022-11-25T02:01:46.691Z,66.05
2022-11-25T02:02:46.824Z,51.05
2022-11-25T02:03:46.691Z,50.94
2022-11-25T02:04:46.667Z,54.65
2022-11-25T02:05:46.646Z,56.08
2022-11-25T02:06:46.638Z,48.48
2022-11-25T02:07:46.709Z,50.86
2022-11-25T02:08:47.631Z,50.85
2022-11-25T02:09:46.607Z,49.35
2022-11-25T02:10:46.598Z,48.47
2022-11-25T02:11:46.602Z,47.20
2022-11-25T02:12:46.609Z,49.32
2022-11-25T02:13:46.573Z,53.33
2022-11-25T02:14:46.570Z,63.54
2022-11-25T02:15:46.555Z,53.59
2022-11-25T02:16:46.620Z,55.11
2022-11-25T02:17:46.555Z,53.51
2022-11-25T02:18:46.522Z,51.40
2022-11-25T02:19:46.530Z,58.77
2022-11-25T02:20:46.513Z,54.55
2022-11-25T02:21:46.492Z,55.50
2022-11-25T02:22:46.539Z,62.46
2022-11-25T02:23:46.510Z,54.54
2022-11-25T02:24:46.468Z,55.01
2022-11-25T02:25:46.473Z,51.49
2022-11-25T02:26:46.445Z,49.95
2022-11-25T02:27:46.442Z,56.04
2022-11-25T02:28:46.423Z,53.45
2022-11-25T02:29:46.423Z,51.78
2022-11-25T02:30:46.425Z,53.74
2022-11-25T02:31:46.487Z,59.29
2022-11-25T02:32:46.384Z,49.55
2022-11-25T02:33:46.408Z,48.95
2022-11-25T02:34:46.373Z,49.85
2022-11-25T02:35:46.352Z,55.39
2022-11-25T02:36:46.353Z,49.69
2022-11-25T02:37:46.336Z,50.34
2022-11-25T02:38:46.345Z,53.14
2022-11-25T02:39:46.331Z,53.30
2022-11-25T02:40:46.331Z,64.01
2022-11-25T02:41:46.313Z,53.08
2022-11-25T02:42:46.318Z,52.88
2022-11-25T02:43:46.292Z,60.03
2022-11-25T02:44:46.271Z,63.36
2022-11-25T02:45:46.409Z,50.42
2022-11-25T02:46:46.266Z,51.26
2022-11-25T02:47:46.243Z,55.95
2022-11-25T02:49:08.063Z,53.02
2022-11-25T02:49:48.246Z,55.76
2022-11-25T02:50:46.249Z,58.13
2022-11-25T02:51:46.229Z,63.57
2022-11-25T02:52:46.203Z,52.50
2022-11-25T02:53:46.209Z,53.42
2022-11-25T02:54:46.200Z,60.41
2022-11-25T02:55:46.175Z,59.02
2022-11-25T02:56:46.180Z,50.67
2022-11-25T02:57:46.146Z,53.00
2022-11-25T02:58:46.159Z,50.75
2022-11-25T02:59:46.142Z,54.79
2022-11-25T03:00:46.185Z,49.41
2022-11-25T03:01:46.182Z,57.38
2022-11-25T03:02:46.113Z,66.66
2022-11-25T03:03:46.111Z,51.74
2022-11-25T03:04:46.089Z,52.26
2022-11-25T03:05:46.074Z,50.20
2022-11-25T03:06:46.111Z,65.50
2022-11-25T03:07:46.182Z,54.64
2022-11-25T03:08:46.073Z,53.98
2022-11-25T03:09:46.036Z,54.40
2022-11-25T03:10:46.027Z,51.67
2022-11-25T03:11:45.999Z,51.22
2022-11-25T03:13:17.980Z,51.11
2022-11-25T03:13:46.084Z,50.47
2022-11-25T03:14:46.056Z,50.11
2022-11-25T03:15:46.030Z,49.93
2022-11-25T03:16:46.156Z,52.96
2022-11-25T03:17:46.052Z,51.91
2022-11-25T03:18:46.020Z,48.55
2022-11-25T03:19:45.973Z,51.41
2022-11-25T03:20:45.986Z,51.02
2022-11-25T03:21:45.985Z,51.52
2022-11-25T03:22:45.988Z,52.62
2022-11-25T03:23:46.024Z,57.40
2022-11-25T03:24:45.978Z,63.42
2022-11-25T03:25:46.002Z,53.44
2022-11-25T03:26:45.994Z,55.28
2022-11-25T03:27:45.931Z,54.91
2022-11-25T03:28:45.967Z,59.79
2022-11-25T03:29:45.909Z,57.23
2022-11-25T03:30:45.923Z,53.41
2022-11-25T03:31:45.980Z,52.32
2022-11-25T03:32:45.932Z,55.96
2022-11-25T03:33:45.875Z,53.46
2022-11-25T03:34:45.852Z,54.10
2022-11-25T03:35:45.949Z,58.80
2022-11-25T03:36:45.905Z,56.32
2022-11-25T03:37:45.844Z,52.43
2022-11-25T03:38:45.839Z,51.50
2022-11-25T03:39:45.831Z,52.53
2022-11-25T03:40:46.787Z,54.25
2022-11-25T03:41:45.780Z,61.92
2022-11-25T03:42:45.841Z,56.46
2022-11-25T03:43:45.794Z,54.27
2022-11-25T03:44:45.785Z,56.05
2022-11-25T03:45:45.790Z,55.21
2022-11-25T03:46:45.726Z,58.38
2022-11-25T03:47:45.740Z,54.79
2022-11-25T03:48:45.707Z,53.39
2022-11-25T03:49:45.719Z,53.96
2022-11-25T03:50:45.733Z,63.92
2022-11-25T03:51:45.687Z,53.80
2022-11-25T03:52:45.753Z,53.75
2022-11-25T03:53:45.778Z,53.41
2022-11-25T03:54:45.641Z,55.14
2022-11-25T03:55:45.657Z,55.51
2022-11-25T03:56:45.642Z,57.07
2022-11-25T03:57:45.681Z,54.03
2022-11-25T03:58:45.626Z,66.53
2022-11-25T03:59:45.619Z,60.07
2022-11-25T04:00:45.626Z,57.34
2022-11-25T04:01:45.624Z,56.72
2022-11-25T04:02:45.674Z,67.39
2022-11-25T04:03:45.578Z,56.33
2022-11-25T04:04:45.583Z,55.01
2022-11-25T04:05:45.578Z,55.51
2022-11-25T04:06:45.548Z,58.38
2022-11-25T04:07:45.620Z,55.61
2022-11-25T04:08:45.568Z,57.11
2022-11-25T04:09:45.504Z,57.19
2022-11-25T04:10:45.549Z,55.01
2022-11-25T04:11:45.461Z,58.26
2022-11-25T04:12:45.530Z,63.52
2022-11-25T04:13:46.503Z,57.17
2022-11-25T04:14:45.486Z,59.01
2022-11-25T04:15:45.525Z,56.31
2022-11-25T04:16:45.529Z,64.42
2022-11-25T04:17:45.432Z,57.82
2022-11-25T04:18:45.458Z,55.72
2022-11-25T04:19:45.460Z,55.79
2022-11-25T04:20:45.411Z,67.72
2022-11-25T04:21:49.384Z,58.59
2022-11-25T04:22:47.417Z,56.70
2022-11-25T04:23:45.449Z,55.25
2022-11-25T04:24:45.389Z,55.12
2022-11-25T04:25:45.338Z,59.30
2022-11-25T04:26:45.383Z,61.91
2022-11-25T04:27:45.350Z,60.20
2022-11-25T04:28:45.338Z,67.29
2022-11-25T04:29:45.350Z,56.39
2022-11-25T04:30:45.349Z,57.91
2022-11-25T04:31:45.311Z,59.13
2022-11-25T04:32:45.325Z,57.77
2022-11-25T04:33:51.088Z,58.58
2022-11-25T04:34:47.294Z,57.99
2022-11-25T04:35:45.317Z,59.57
2022-11-25T04:36:45.312Z,59.13
2022-11-25T04:37:45.266Z,59.31
2022-11-25T04:38:45.259Z,62.02
2022-11-25T04:39:45.278Z,58.49
2022-11-25T04:40:45.220Z,69.37
2022-11-25T04:41:45.250Z,65.48
2022-11-25T04:42:45.246Z,60.54
2022-11-25T04:43:45.188Z,58.61
2022-11-25T04:45:01.136Z,62.78
2022-11-25T04:46:12.619Z,62.93
2022-11-25T04:46:47.206Z,59.29
2022-11-25T04:47:45.148Z,60.44
2022-11-25T04:48:45.150Z,59.53
2022-11-25T04:49:45.139Z,68.98
2022-11-25T04:50:45.179Z,62.32
2022-11-25T04:51:45.111Z,58.21
2022-11-25T04:52:45.147Z,58.09
2022-11-25T04:53:45.106Z,57.88
2022-11-25T04:54:45.076Z,58.78
2022-11-25T04:55:45.044Z,58.74
2022-11-25T04:56:45.042Z,56.93
2022-11-25T04:57:45.028Z,57.84
2022-11-25T04:58:45.080Z,63.29
2022-11-25T04:59:45.003Z,61.90
2022-11-25T05:00:45.033Z,63.31
2022-11-25T05:01:45.077Z,62.18
2022-11-25T05:02:45.076Z,58.67
2022-11-25T05:03:48.927Z,57.13
2022-11-25T05:04:46.983Z,67.52
2022-11-25T05:05:45.001Z,59.14
2022-11-25T05:06:44.970Z,58.43
2022-11-25T05:07:46.017Z,59.00
2022-11-25T05:08:44.961Z,58.73
2022-11-25T05:09:44.923Z,62.19
2022-11-25T05:10:44.915Z,57.54
2022-11-25T05:11:44.905Z,56.59
2022-11-25T05:12:44.883Z,60.17
2022-11-25T05:13:44.933Z,61.09
2022-11-25T05:14:44.863Z,59.76
2022-11-25T05:15:44.843Z,57.71
2022-11-25T05:16:44.853Z,65.06
2022-11-25T05:17:44.865Z,60.22
2022-11-25T05:18:44.826Z,59.39
2022-11-25T05:19:44.866Z,60.90
2022-11-25T05:20:44.837Z,59.63
2022-11-25T05:21:45.792Z,62.42
2022-11-25T05:22:44.801Z,64.09
2022-11-25T05:23:44.801Z,60.30
2022-11-25T05:24:44.777Z,59.41
2022-11-25T05:25:44.790Z,59.81
2022-11-25T05:26:44.740Z,60.10
2022-11-25T05:27:45.744Z,68.48
2022-11-25T05:28:44.749Z,59.41
2022-11-25T05:29:44.731Z,59.75
2022-11-25T05:30:44.751Z,59.56
2022-11-25T05:31:44.766Z,60.07
2022-11-25T05:32:44.723Z,62.19
2022-11-25T05:33:44.694Z,67.05
2022-11-25T05:34:44.704Z,59.86
2022-11-25T05:35:44.692Z,67.45
2022-11-25T05:36:44.695Z,65.11
2022-11-25T05:37:44.650Z,62.47
2022-11-25T05:38:44.614Z,61.09
2022-11-25T05:39:44.608Z,60.08
2022-11-25T05:40:44.620Z,60.94
2022-11-25T05:41:44.597Z,61.82
2022-11-25T05:42:44.625Z,61.09
2022-11-25T05:43:44.571Z,62.73
2022-11-25T05:44:44.570Z,60.59
2022-11-25T05:45:44.622Z,59.74
2022-11-25T05:46:44.558Z,58.82
2022-11-25T05:47:44.578Z,61.26
2022-11-25T05:48:44.544Z,60.48
2022-11-25T05:49:44.520Z,59.06
2022-11-25T05:50:44.502Z,58.85
2022-11-25T05:51:44.511Z,59.00
2022-11-25T05:52:44.509Z,67.63
2022-11-25T05:53:44.538Z,61.90
2022-11-25T05:54:44.484Z,64.74
2022-11-25T05:55:44.492Z,61.88
2022-11-25T05:56:44.445Z,68.88
2022-11-25T05:57:44.483Z,62.50
2022-11-25T05:58:44.505Z,60.56
2022-11-25T05:59:44.435Z,59.26
2022-11-25T06:00:44.420Z,59.51
2022-11-25T06:01:44.422Z,67.74
2022-11-25T06:02:44.559Z,59.60
2022-11-25T06:03:44.438Z,60.84
2022-11-25T06:04:44.399Z,60.65
2022-11-25T06:05:44.377Z,67.48
2022-11-25T06:06:44.368Z,60.31
2022-11-25T06:07:44.423Z,60.70
2022-11-25T06:08:44.339Z,60.52
2022-11-25T06:09:44.393Z,64.04
2022-11-25T06:10:44.313Z,63.61
2022-11-25T06:11:44.336Z,62.64
2022-11-25T06:12:44.312Z,60.68
2022-11-25T06:13:44.310Z,59.87
2022-11-25T06:14:44.361Z,60.59
2022-11-25T06:15:44.346Z,67.73
2022-11-25T06:16:44.323Z,66.51
2022-11-25T06:17:44.266Z,60.80
2022-11-25T06:18:44.256Z,61.54
2022-11-25T06:19:44.260Z,61.24
2022-11-25T06:20:44.261Z,67.35
2022-11-25T06:21:44.242Z,61.80
2022-11-25T06:22:44.237Z,61.18
2022-11-25T06:23:44.196Z,60.72
2022-11-25T06:24:46.523Z,60.66
2022-11-25T06:25:45.240Z,62.42
2022-11-25T06:26:44.144Z,59.89
2022-11-25T06:28:11.439Z,67.10
2022-11-25T06:28:46.156Z,64.15
2022-11-25T06:29:44.158Z,64.72
2022-11-25T06:30:44.216Z,71.35
2022-11-25T06:31:44.229Z,62.48
2022-11-25T06:32:44.127Z,61.86
2022-11-25T06:33:45.105Z,61.73
2022-11-25T06:34:44.085Z,63.93
2022-11-25T06:35:44.079Z,63.26
2022-11-25T06:36:44.047Z,61.16
2022-11-25T06:37:44.097Z,62.40
2022-11-25T06:38:44.045Z,60.58
2022-11-25T06:39:44.057Z,61.01
2022-11-25T06:40:44.048Z,62.13
2022-11-25T06:41:44.013Z,63.76
2022-11-25T06:42:44.003Z,61.42
2022-11-25T06:43:44.003Z,65.25
2022-11-25T06:44:44.015Z,60.99
2022-11-25T06:45:43.974Z,59.92
2022-11-25T06:46:44.051Z,60.69
2022-11-25T06:47:43.951Z,62.61
2022-11-25T06:48:43.964Z,61.16
2022-11-25T06:49:43.999Z,60.84
2022-11-25T06:50:43.921Z,63.21
2022-11-25T06:51:43.932Z,66.99
2022-11-25T06:52:43.905Z,59.57
2022-11-25T06:53:43.933Z,61.56
2022-11-25T06:54:43.911Z,61.61
2022-11-25T06:55:43.899Z,60.41
2022-11-25T06:56:43.864Z,61.11
2022-11-25T06:57:44.889Z,60.34
2022-11-25T06:58:43.861Z,62.90
2022-11-25T06:59:43.844Z,61.45
2022-11-25T07:00:43.853Z,60.48
2022-11-25T07:01:43.846Z,60.47
2022-11-25T07:02:48.174Z,61.70
2022-11-25T07:03:44.805Z,66.40
2022-11-25T07:04:43.785Z,60.51
2022-11-25T07:05:43.808Z,60.47
2022-11-25T07:06:43.836Z,61.81
2022-11-25T07:07:43.824Z,65.56
2022-11-25T07:08:44.727Z,60.38
2022-11-25T07:09:43.756Z,60.67
2022-11-25T07:10:43.728Z,60.83
2022-11-25T07:11:43.775Z,60.80
2022-11-25T07:12:43.765Z,61.37
2022-11-25T07:13:43.694Z,66.27
2022-11-25T07:14:43.698Z,60.93
2022-11-25T07:15:43.794Z,60.45
2022-11-25T07:16:44.064Z,60.50
2022-11-25T07:17:44.679Z,59.63
2022-11-25T07:18:43.632Z,61.45
2022-11-25T07:19:43.633Z,60.41
2022-11-25T07:20:43.651Z,59.85
2022-11-25T07:21:43.635Z,58.77
2022-11-25T07:22:43.644Z,60.90
2022-11-25T07:23:43.591Z,62.42
2022-11-25T07:24:43.623Z,62.39
2022-11-25T07:25:43.592Z,61.69
2022-11-25T07:26:43.604Z,60.16
2022-11-25T07:27:43.565Z,60.02
2022-11-25T07:28:43.727Z,60.50
2022-11-25T07:30:03.123Z,60.64
2022-11-25T07:31:45.533Z,60.02
2022-11-25T07:32:43.521Z,62.24
2022-11-25T07:33:43.608Z,60.40
2022-11-25T07:34:43.506Z,61.19
2022-11-25T07:35:43.537Z,60.42
2022-11-25T07:36:43.489Z,65.03
2022-11-25T07:37:43.471Z,61.33
2022-11-25T07:38:46.547Z,61.29
2022-11-25T07:39:44.504Z,60.89
2022-11-25T07:40:43.446Z,60.96
2022-11-25T07:41:44.488Z,59.75
2022-11-25T07:42:43.496Z,60.99
2022-11-25T07:43:43.409Z,62.05
2022-11-25T07:44:43.419Z,60.71
2022-11-25T07:45:43.387Z,59.08
2022-11-25T07:46:43.408Z,60.64
2022-11-25T07:47:43.393Z,60.10
2022-11-25T07:48:43.344Z,64.10
2022-11-25T07:49:43.332Z,61.58
2022-11-25T07:50:43.381Z,65.33
2022-11-25T07:51:43.376Z,60.85
2022-11-25T07:52:43.329Z,61.30
2022-11-25T07:53:43.321Z,64.05
2022-11-25T07:54:43.341Z,61.62
2022-11-25T07:55:43.286Z,60.29
2022-11-25T07:56:43.288Z,62.22
2022-11-25T07:57:43.278Z,67.96
2022-11-25T07:58:46.094Z,62.77
2022-11-25T07:59:44.255Z,61.52
2022-11-25T08:00:43.238Z,61.62
2022-11-25T08:01:43.317Z,60.78
2022-11-25T08:02:43.282Z,61.43
2022-11-25T08:03:43.254Z,61.77
2022-11-25T08:04:43.202Z,60.31
2022-11-25T08:05:43.191Z,62.03
2022-11-25T08:06:43.192Z,66.27
2022-11-25T08:07:43.200Z,59.63
2022-11-25T08:08:43.174Z,59.28
2022-11-25T08:09:43.138Z,57.81
2022-11-25T08:10:43.149Z,62.94
2022-11-25T08:11:43.196Z,62.09
2022-11-25T08:12:43.136Z,60.84
2022-11-25T08:13:43.125Z,61.83
2022-11-25T08:14:43.094Z,60.22
2022-11-25T08:15:43.156Z,63.79
2022-11-25T08:16:43.135Z,59.67
2022-11-25T08:17:43.076Z,61.34
2022-11-25T08:18:43.078Z,62.40
2022-11-25T08:19:43.116Z,66.16
2022-11-25T08:20:43.074Z,62.01
2022-11-25T08:21:43.076Z,61.67
2022-11-25T08:22:43.042Z,62.00
2022-11-25T08:23:43.042Z,61.26
2022-11-25T08:24:43.024Z,62.88
2022-11-25T08:25:47.443Z,61.43
2022-11-25T08:26:45.001Z,60.92
2022-11-25T08:27:42.951Z,61.03
2022-11-25T08:28:42.967Z,61.77
2022-11-25T08:29:43.012Z,64.40
2022-11-25T08:30:42.939Z,62.05
2022-11-25T08:31:43.067Z,61.68
2022-11-25T08:32:42.917Z,62.75
2022-11-25T08:33:42.896Z,61.65
2022-11-25T08:34:42.982Z,67.39
2022-11-25T08:35:42.888Z,61.74
2022-11-25T08:36:47.931Z,61.26
2022-11-25T08:37:44.870Z,60.09
2022-11-25T08:38:42.880Z,60.25
2022-11-25T08:39:58.461Z,59.29
2022-11-25T08:40:44.875Z,61.99
2022-11-25T08:41:42.861Z,61.80
2022-11-25T08:42:42.827Z,61.30
2022-11-25T08:43:42.828Z,60.30
2022-11-25T08:44:42.810Z,61.88
2022-11-25T08:45:42.846Z,62.50
2022-11-25T08:46:42.883Z,61.40
2022-11-25T08:47:42.762Z,60.95
2022-11-25T08:48:42.755Z,60.98
2022-11-25T08:49:43.014Z,61.17
2022-11-25T08:50:42.721Z,63.27
2022-11-25T08:51:42.763Z,61.06
2022-11-25T08:52:42.723Z,60.33
2022-11-25T08:53:42.752Z,67.81
2022-11-25T08:54:42.727Z,62.21
2022-11-25T08:55:42.706Z,60.42
2022-11-25T08:56:42.687Z,61.66
2022-11-25T08:57:42.675Z,59.96
2022-11-25T08:58:42.698Z,59.73
2022-11-25T08:59:42.619Z,59.89
2022-11-25T09:00:42.604Z,59.72
2022-11-25T09:01:42.673Z,60.74
2022-11-25T09:02:42.697Z,60.00
2022-11-25T09:03:42.587Z,60.39
2022-11-25T09:04:42.603Z,67.66
2022-11-25T09:05:42.580Z,59.76
2022-11-25T09:06:42.557Z,60.19
2022-11-25T09:07:42.631Z,60.60
2022-11-25T09:08:42.529Z,59.40
2022-11-25T09:09:42.546Z,60.57
2022-11-25T09:10:42.529Z,60.09
2022-11-25T09:11:42.589Z,60.45
2022-11-25T09:12:42.494Z,61.08
2022-11-25T09:13:42.553Z,60.17
2022-11-25T09:15:14.389Z,66.04
2022-11-25T09:15:42.492Z,62.07
2022-11-25T09:16:42.596Z,60.36
2022-11-25T09:17:42.452Z,60.30
2022-11-25T09:18:42.428Z,60.80
2022-11-25T09:19:42.421Z,68.48
2022-11-25T09:20:42.400Z,61.34
2022-11-25T09:21:42.419Z,61.42
2022-11-25T09:22:42.415Z,64.75
2022-11-25T09:23:42.377Z,63.70
2022-11-25T09:24:42.354Z,64.73
2022-11-25T09:25:42.358Z,68.59
2022-11-25T09:26:42.347Z,64.10
2022-11-25T09:27:42.353Z,61.23
2022-11-25T09:28:42.323Z,60.32
2022-11-25T09:29:42.309Z,59.68
2022-11-25T09:30:42.313Z,60.25
2022-11-25T09:31:42.340Z,72.87
2022-11-25T09:32:42.285Z,64.37
2022-11-25T09:33:42.290Z,62.81
2022-11-25T09:34:42.269Z,61.43
2022-11-25T09:35:42.251Z,61.87
2022-11-25T09:36:42.257Z,63.61
2022-11-25T09:37:42.251Z,62.05
2022-11-25T09:38:43.453Z,59.45
2022-11-25T09:39:43.225Z,63.68
2022-11-25T09:40:42.197Z,61.08
2022-11-25T09:41:42.239Z,61.83
2022-11-25T09:42:42.193Z,61.44
2022-11-25T09:43:42.167Z,62.93
2022-11-25T09:44:42.815Z,60.57
2022-11-25T09:45:43.150Z,60.50
2022-11-25T09:46:42.189Z,66.72
2022-11-25T09:47:46.840Z,64.11
2022-11-25T09:48:43.136Z,62.11
2022-11-25T09:49:42.106Z,60.73
2022-11-25T09:50:42.105Z,60.69
2022-11-25T09:51:42.093Z,60.80
2022-11-25T09:52:42.100Z,60.13
2022-11-25T09:53:42.104Z,62.11
2022-11-25T09:54:42.096Z,61.13
2022-11-25T09:55:42.049Z,61.35
2022-11-25T09:56:42.120Z,60.11
2022-11-25T09:57:42.030Z,61.32
2022-11-25T09:58:42.011Z,62.42
2022-11-25T09:59:42.023Z,60.72
2022-11-25T10:00:42.041Z,62.76
2022-11-25T10:01:42.040Z,59.98
2022-11-25T10:02:42.104Z,62.79
2022-11-25T10:03:42.055Z,60.79
2022-11-25T10:04:41.990Z,62.02
2022-11-25T10:05:41.955Z,62.60
2022-11-25T10:06:42.035Z,59.37
2022-11-25T10:07:41.979Z,60.98
2022-11-25T10:08:41.915Z,60.99
2022-11-25T10:09:41.923Z,61.93
2022-11-25T10:10:41.909Z,63.02
2022-11-25T10:11:41.887Z,65.95
2022-11-25T10:12:41.906Z,61.24
2022-11-25T10:13:41.894Z,63.02
2022-11-25T10:14:41.876Z,58.93
2022-11-25T10:15:41.928Z,60.08
2022-11-25T10:16:43.964Z,60.01
2022-11-25T10:17:41.839Z,60.79
2022-11-25T10:18:41.845Z,60.87
2022-11-25T10:19:41.817Z,60.50
2022-11-25T10:20:41.813Z,60.16
2022-11-25T10:21:41.790Z,60.67
2022-11-25T10:22:41.788Z,60.45
2022-11-25T10:23:41.803Z,60.52
2022-11-25T10:24:41.771Z,60.78
2022-11-25T10:25:41.771Z,62.45
2022-11-25T10:26:41.742Z,62.65
2022-11-25T10:27:41.738Z,60.79
2022-11-25T10:28:41.721Z,63.55
2022-11-25T10:29:41.755Z,68.44
2022-11-25T10:30:41.702Z,60.55
2022-11-25T10:31:41.741Z,60.58
2022-11-25T10:32:41.672Z,61.40
2022-11-25T10:33:41.677Z,69.48
2022-11-25T10:34:41.683Z,63.20
2022-11-25T10:35:41.661Z,61.07
2022-11-25T10:36:41.640Z,62.43
2022-11-25T10:37:41.640Z,60.74
2022-11-25T10:38:41.627Z,61.07
2022-11-25T10:39:41.663Z,61.08
2022-11-25T10:40:41.610Z,66.87
2022-11-25T10:41:41.589Z,60.55
2022-11-25T10:42:41.606Z,64.90
2022-11-25T10:43:41.598Z,61.17
2022-11-25T10:44:41.584Z,61.08
2022-11-25T10:45:41.552Z,60.95
2022-11-25T10:47:11.697Z,64.37
2022-11-25T10:47:43.633Z,66.54
2022-11-25T10:48:44.309Z,61.72
2022-11-25T10:49:42.513Z,62.89
2022-11-25T10:50:41.503Z,66.71
2022-11-25T10:51:41.498Z,61.30
2022-11-25T10:52:41.498Z,60.67
2022-11-25T10:53:41.489Z,61.39
2022-11-25T10:54:41.722Z,66.25
2022-11-25T10:55:41.467Z,61.53
2022-11-25T10:56:41.496Z,61.56
2022-11-25T10:57:41.435Z,65.27
2022-11-25T10:58:41.432Z,63.24
2022-11-25T10:59:41.424Z,61.71
2022-11-25T11:00:41.430Z,66.84
2022-11-25T11:01:41.418Z,61.84
2022-11-25T11:02:41.444Z,60.69
2022-11-25T11:03:41.396Z,65.07
2022-11-25T11:04:41.389Z,61.58
2022-11-25T11:05:46.386Z,60.48
2022-11-25T11:06:43.347Z,61.98
2022-11-25T11:07:41.388Z,61.27
2022-11-25T11:08:41.360Z,68.53
2022-11-25T11:09:41.311Z,61.03
2022-11-25T11:10:41.300Z,66.06
2022-11-25T11:11:41.301Z,61.14
2022-11-25T11:12:41.280Z,61.49
2022-11-25T11:13:41.299Z,63.22
2022-11-25T11:14:41.282Z,60.76
2022-11-25T11:15:41.444Z,68.61
2022-11-25T11:16:41.312Z,64.94
2022-11-25T11:17:41.240Z,62.88
2022-11-25T11:18:41.216Z,61.57
2022-11-25T11:19:41.217Z,62.82
2022-11-25T11:20:41.203Z,62.46
2022-11-25T11:21:41.252Z,62.12
2022-11-25T11:22:41.192Z,63.61
2022-11-25T11:23:41.177Z,61.20
2022-11-25T11:24:41.159Z,65.25
2022-11-25T11:25:41.179Z,64.59
2022-11-25T11:26:41.138Z,66.63
2022-11-25T11:27:41.122Z,61.02
2022-11-25T11:28:41.132Z,60.99
2022-11-25T11:29:41.108Z,61.95
2022-11-25T11:30:41.113Z,61.79
2022-11-25T11:31:41.153Z,67.02
2022-11-25T11:32:41.075Z,68.40
2022-11-25T11:33:41.088Z,62.73
2022-11-25T11:34:42.066Z,67.66
2022-11-25T11:35:42.108Z,60.65
2022-11-25T11:36:41.034Z,63.08
2022-11-25T11:37:41.032Z,66.96
2022-11-25T11:38:41.027Z,60.99
2022-11-25T11:39:43.104Z,62.55
2022-11-25T11:40:41.002Z,66.86
2022-11-25T11:41:40.991Z,62.92
2022-11-25T11:42:40.976Z,61.90
2022-11-25T11:43:40.995Z,63.69
2022-11-25T11:44:40.961Z,57.81
2022-11-25T11:45:40.951Z,61.39
2022-11-25T11:46:40.987Z,68.53
2022-11-25T11:47:40.975Z,61.86
2022-11-25T11:48:40.918Z,58.08
2022-11-25T11:49:40.916Z,62.60
2022-11-25T11:50:40.902Z,61.97
2022-11-25T11:51:40.901Z,61.87
2022-11-25T11:52:40.904Z,62.20
2022-11-25T11:53:40.873Z,62.24
2022-11-25T11:54:40.850Z,63.01
2022-11-25T11:55:40.862Z,60.65
2022-11-25T11:56:40.834Z,61.71
2022-11-25T11:57:40.834Z,67.14
2022-11-25T11:58:40.834Z,64.44
2022-11-25T11:59:40.847Z,62.42
2022-11-25T12:00:40.811Z,62.89
2022-11-25T12:01:40.831Z,60.64
2022-11-25T12:02:40.935Z,64.33
2022-11-25T12:03:40.838Z,60.84
2022-11-25T12:04:40.786Z,68.05
2022-11-25T12:05:40.754Z,62.01
2022-11-25T12:06:40.754Z,67.12
2022-11-25T12:07:40.843Z,61.14
2022-11-25T12:08:40.714Z,61.38
2022-11-25T12:09:40.724Z,60.95
2022-11-25T12:10:40.774Z,65.56
2022-11-25T12:11:40.704Z,60.45
2022-11-25T12:12:40.709Z,59.48
2022-11-25T12:13:40.679Z,61.31
2022-11-25T12:14:40.666Z,61.66
2022-11-25T12:15:40.687Z,59.86
2022-11-25T12:16:40.732Z,59.71
2022-11-25T12:17:40.658Z,59.09
2022-11-25T12:18:40.643Z,60.24
2022-11-25T12:19:40.618Z,61.97
2022-11-25T12:20:40.635Z,60.42
2022-11-25T12:21:42.220Z,60.01
2022-11-25T12:22:41.581Z,62.08
2022-11-25T12:23:40.567Z,60.37
2022-11-25T12:24:40.579Z,61.02
2022-11-25T12:25:40.561Z,62.38
2022-11-25T12:26:40.575Z,60.14
2022-11-25T12:27:40.551Z,60.17
2022-11-25T12:28:40.557Z,59.77
2022-11-25T12:29:40.541Z,60.83
2022-11-25T12:30:40.510Z,62.04
2022-11-25T12:31:40.606Z,60.11
2022-11-25T12:32:40.550Z,61.53
2022-11-25T12:33:40.494Z,62.80
2022-11-25T12:34:40.485Z,58.90
2022-11-25T12:35:40.464Z,60.55
2022-11-25T12:36:40.483Z,61.53
2022-11-25T12:37:40.502Z,59.87
2022-11-25T12:38:40.417Z,61.33
2022-11-25T12:39:40.449Z,64.04
2022-11-25T12:40:40.420Z,64.98
2022-11-25T12:41:40.441Z,60.09
2022-11-25T12:42:40.374Z,61.69
2022-11-25T12:43:41.389Z,60.76
2022-11-25T12:44:40.403Z,63.69
2022-11-25T12:45:40.421Z,62.71
2022-11-25T12:46:40.361Z,60.24
2022-11-25T12:47:40.375Z,64.07
2022-11-25T12:48:40.325Z,63.67
2022-11-25T12:49:40.336Z,61.45
2022-11-25T12:50:40.326Z,61.24
2022-11-25T12:51:40.309Z,61.34
2022-11-25T12:52:40.290Z,61.33
2022-11-25T12:53:40.288Z,62.00